createdAt,value
2022-09-26T00:01:37.926Z,99.60
2022-09-26T00:04:30.422Z,99.30
2022-09-26T00:07:00.882Z,99.20
2022-09-26T00:09:28.907Z,99.20
2022-09-26T00:11:56.363Z,99.10
2022-09-26T00:14:29.332Z,99.10
2022-09-26T00:16:56.807Z,99.10
2022-09-26T00:19:24.660Z,99.00
2022-09-26T00:21:52.136Z,98.90
2022-09-26T00:24:19.470Z,98.90
2022-09-26T00:26:46.844Z,98.90
2022-09-26T00:29:15.126Z,98.90
2022-09-26T00:31:45.759Z,98.90
2022-09-26T00:34:16.215Z,98.80
2022-09-26T00:36:43.725Z,98.80
2022-09-26T00:39:15.397Z,98.70
2022-09-26T00:41:43.699Z,98.70
2022-09-26T00:44:46.464Z,98.70
2022-09-26T00:47:41.847Z,98.60
2022-09-26T00:50:26.467Z,98.60
2022-09-26T00:53:17.037Z,98.70
2022-09-26T00:55:52.866Z,98.50
2022-09-26T00:58:30.746Z,98.60
2022-09-26T01:01:00.815Z,98.60
2022-09-26T01:03:31.478Z,98.50
2022-09-26T01:06:00.951Z,98.50
2022-09-26T01:08:40.644Z,98.60
2022-09-26T01:11:11.597Z,98.60
2022-09-26T01:13:43.739Z,98.60
2022-09-26T01:16:11.054Z,98.60
2022-09-26T01:18:39.009Z,98.60
2022-09-26T01:21:27.359Z,98.70
2022-09-26T01:24:25.504Z,98.80
2022-09-26T01:27:25.957Z,98.80
2022-09-26T01:30:09.256Z,98.70
2022-09-26T01:33:07.674Z,98.70
2022-09-26T01:36:08.746Z,98.80
2022-09-26T01:38:52.691Z,98.80
2022-09-26T01:41:58.786Z,98.90
2022-09-26T01:44:53.545Z,98.90
2022-09-26T01:47:44.266Z,98.90
2022-09-26T01:50:34.905Z,98.90
2022-09-26T01:53:35.679Z,98.80
2022-09-26T01:56:11.797Z,98.90
2022-09-26T01:59:09.561Z,98.80
2022-09-26T02:01:43.199Z,98.80
2022-09-26T02:04:22.036Z,98.80
2022-09-26T02:07:20.970Z,98.80
2022-09-26T02:10:03.670Z,98.80
2022-09-26T02:12:38.348Z,98.80
2022-09-26T02:15:11.283Z,98.80
2022-09-26T02:17:49.326Z,98.80
2022-09-26T02:20:26.993Z,98.80
2022-09-26T02:22:54.589Z,98.80
2022-09-26T02:25:21.868Z,98.80
2022-09-26T02:27:50.347Z,98.80
2022-09-26T02:30:17.734Z,98.80
2022-09-26T02:32:45.145Z,98.80
2022-09-26T02:35:31.312Z,98.80
2022-09-26T02:37:59.333Z,98.90
2022-09-26T02:40:42.463Z,99.00
2022-09-26T02:43:26.806Z,99.00
2022-09-26T02:46:30.588Z,99.10
2022-09-26T02:49:32.213Z,99.10
2022-09-26T02:52:43.402Z,99.20
2022-09-26T02:55:45.979Z,99.30
2022-09-26T02:58:42.539Z,99.30
2022-09-26T03:02:09.466Z,99.40
2022-09-26T03:04:58.515Z,99.50
2022-09-26T03:07:41.648Z,99.50
2022-09-26T03:10:12.095Z,99.50
2022-09-26T03:12:42.477Z,99.50
2022-09-26T03:15:12.376Z,99.50
2022-09-26T03:17:49.681Z,99.70
2022-09-26T03:20:21.645Z,99.70
2022-09-26T03:22:50.517Z,99.70
2022-09-26T03:25:25.915Z,99.60
2022-09-26T03:27:54.230Z,99.40
2022-09-26T03:30:23.327Z,99.40
2022-09-26T03:32:50.824Z,99.20
2022-09-26T03:35:18.071Z,99.30
2022-09-26T03:37:45.477Z,99.20
2022-09-26T03:40:13.687Z,99.00
2022-09-26T03:42:41.440Z,98.80
2022-09-26T03:45:11.029Z,98.80
2022-09-26T03:47:38.454Z,98.80
2022-09-26T03:50:07.204Z,98.60
2022-09-26T03:52:36.719Z,98.50
2022-09-26T03:55:05.296Z,98.50
2022-09-26T03:57:32.648Z,98.50
2022-09-26T04:00:00.927Z,98.60
2022-09-26T04:02:28.354Z,98.60
2022-09-26T04:04:55.707Z,98.50
2022-09-26T04:07:23.004Z,98.50
2022-09-26T04:09:50.314Z,98.50
2022-09-26T04:12:17.740Z,98.50
2022-09-26T04:14:45.011Z,98.50
2022-09-26T04:17:13.337Z,98.50
2022-09-26T04:19:40.632Z,98.60
2022-09-26T04:22:10.773Z,98.40
2022-09-26T04:24:38.357Z,98.50
2022-09-26T04:27:06.506Z,98.60
2022-09-26T04:29:33.786Z,98.50
2022-09-26T04:32:01.325Z,98.40
2022-09-26T04:34:28.602Z,98.30
2022-09-26T04:36:56.604Z,98.40
2022-09-26T04:39:23.942Z,98.20
2022-09-26T04:41:52.488Z,98.10
2022-09-26T04:44:19.879Z,98.20
2022-09-26T04:46:48.143Z,98.10
2022-09-26T04:49:15.708Z,97.90
2022-09-26T04:51:43.243Z,97.90
2022-09-26T04:54:10.577Z,97.90
2022-09-26T04:56:37.959Z,98.30
2022-09-26T04:59:05.613Z,97.90
2022-09-26T05:01:33.096Z,97.90
2022-09-26T05:04:00.430Z,97.80
2022-09-26T05:06:27.651Z,97.70
2022-09-26T05:08:55.175Z,97.70
2022-09-26T05:11:22.430Z,97.60
2022-09-26T05:13:53.759Z,97.60
2022-09-26T05:16:21.727Z,97.50
2022-09-26T05:18:52.090Z,97.40
2022-09-26T05:21:20.421Z,97.50
2022-09-26T05:24:06.944Z,97.50
2022-09-26T05:26:45.962Z,97.60
2022-09-26T05:29:14.315Z,97.50
2022-09-26T05:31:42.351Z,97.60
2022-09-26T05:34:16.881Z,97.60
2022-09-26T05:36:48.214Z,97.60
2022-09-26T05:39:35.903Z,97.50
2022-09-26T05:42:07.559Z,97.50
2022-09-26T05:44:34.899Z,97.50
2022-09-26T05:47:02.390Z,97.40
2022-09-26T05:49:30.706Z,97.40
2022-09-26T05:51:58.043Z,97.40
2022-09-26T05:54:26.184Z,97.40
2022-09-26T05:56:53.538Z,97.30
2022-09-26T05:59:21.217Z,97.10
2022-09-26T06:01:48.516Z,96.90
2022-09-26T06:04:15.793Z,97.00
2022-09-26T06:06:44.252Z,97.00
2022-09-26T06:09:11.818Z,96.90
2022-09-26T06:11:39.118Z,96.70
2022-09-26T06:14:08.258Z,96.80
2022-09-26T06:16:35.724Z,96.90
2022-09-26T06:19:03.295Z,96.90
2022-09-26T06:21:30.615Z,96.90
2022-09-26T06:23:57.939Z,96.90
2022-09-26T06:26:29.008Z,96.90
2022-09-26T06:29:00.894Z,97.00
2022-09-26T06:31:30.061Z,97.00
2022-09-26T06:33:58.633Z,96.60
2022-09-26T06:36:28.497Z,96.70
2022-09-26T06:38:56.111Z,97.00
2022-09-26T06:41:23.500Z,96.90
2022-09-26T06:43:51.117Z,97.00
2022-09-26T06:46:18.537Z,96.90
2022-09-26T06:48:45.786Z,96.70
2022-09-26T06:51:14.324Z,96.70
2022-09-26T06:53:42.988Z,96.70
2022-09-26T06:56:11.057Z,96.50
2022-09-26T06:58:39.366Z,96.60
2022-09-26T07:01:07.370Z,96.30
2022-09-26T07:03:34.840Z,96.20
2022-09-26T07:06:03.433Z,96.10
2022-09-26T07:09:00.299Z,96.20
2022-09-26T07:14:06.173Z,96.00
2022-09-26T07:16:33.471Z,95.70
2022-09-26T07:19:01.127Z,95.40
2022-09-26T07:21:28.450Z,95.00
2022-09-26T07:23:58.644Z,94.90
2022-09-26T07:26:25.899Z,94.90
2022-09-26T07:28:54.934Z,94.00
2022-09-26T07:31:26.324Z,93.90
2022-09-26T07:33:54.066Z,93.30
2022-09-26T07:36:21.731Z,93.50
2022-09-26T07:38:49.907Z,93.60
2022-09-26T07:41:18.281Z,93.20
2022-09-26T07:46:51.337Z,92.40
2022-09-26T07:49:57.232Z,92.60
2022-09-26T07:52:24.630Z,92.30
2022-09-26T07:54:54.255Z,92.40
2022-09-26T07:57:21.484Z,92.10
2022-09-26T07:59:50.545Z,91.70
2022-09-26T08:02:32.046Z,91.20
2022-09-26T08:05:01.189Z,91.00
2022-09-26T08:07:29.733Z,90.90
2022-09-26T08:09:58.835Z,91.00
2022-09-26T08:12:27.101Z,90.40
2022-09-26T08:14:55.038Z,90.20
2022-09-26T08:17:22.575Z,89.60
2022-09-26T08:19:49.872Z,89.70
2022-09-26T08:22:17.254Z,89.00
2022-09-26T08:24:49.747Z,86.60
2022-09-26T08:27:18.345Z,84.90
2022-09-26T08:29:48.538Z,84.10
2022-09-26T08:32:18.163Z,80.20
2022-09-26T08:34:47.155Z,81.20
2022-09-26T08:37:14.864Z,80.60
2022-09-26T08:39:41.955Z,79.30
2022-09-26T08:42:12.092Z,79.00
2022-09-26T08:45:33.195Z,78.60
2022-09-26T08:48:19.531Z,78.60
2022-09-26T08:50:53.569Z,76.60
2022-09-26T08:53:34.751Z,76.10
2022-09-26T08:56:08.278Z,75.50
2022-09-26T08:58:42.973Z,77.20
2022-09-26T09:01:24.871Z,76.30
2022-09-26T09:04:03.212Z,76.80
2022-09-26T09:06:30.584Z,76.30
2022-09-26T09:08:58.621Z,74.20
2022-09-26T09:11:40.932Z,74.40
2022-09-26T09:14:36.616Z,75.50
2022-09-26T09:17:09.937Z,74.20
2022-09-26T09:19:59.940Z,74.60
2022-09-26T09:22:41.748Z,74.70
2022-09-26T09:25:21.932Z,75.30
2022-09-26T09:28:27.430Z,76.10
2022-09-26T09:31:01.269Z,75.30
2022-09-26T09:33:31.267Z,75.40
2022-09-26T09:36:09.270Z,74.70
2022-09-26T09:38:39.160Z,72.60
2022-09-26T09:41:11.094Z,73.00
2022-09-26T09:43:42.809Z,74.00
2022-09-26T09:46:16.162Z,72.60
2022-09-26T09:48:46.760Z,72.30
2022-09-26T09:51:24.032Z,72.30
2022-09-26T09:54:15.526Z,70.00
2022-09-26T09:57:03.187Z,73.00
2022-09-26T09:59:58.796Z,72.50
2022-09-26T10:02:49.518Z,70.00
2022-09-26T10:05:19.717Z,67.30
2022-09-26T10:07:47.718Z,69.80
2022-09-26T10:10:21.183Z,68.30
2022-09-26T10:12:52.453Z,70.00
2022-09-26T10:15:26.363Z,69.40
2022-09-26T10:18:25.643Z,68.90
2022-09-26T10:20:59.584Z,66.50
2022-09-26T10:23:46.909Z,66.30
2022-09-26T10:26:16.148Z,65.70
2022-09-26T10:28:56.430Z,64.40
2022-09-26T10:31:32.634Z,63.20
2022-09-26T10:34:19.202Z,62.50
2022-09-26T10:36:46.591Z,62.60
2022-09-26T10:39:35.013Z,62.40
2022-09-26T10:42:07.415Z,62.00
2022-09-26T10:44:38.875Z,61.90
2022-09-26T10:47:14.306Z,62.20
2022-09-26T10:49:52.981Z,62.20
2022-09-26T10:52:54.064Z,62.20
2022-09-26T10:55:29.730Z,62.40
2022-09-26T10:58:08.983Z,61.50
2022-09-26T11:00:46.756Z,61.30
2022-09-26T11:03:20.279Z,60.50
2022-09-26T11:05:57.819Z,60.20
2022-09-26T11:08:38.310Z,59.90
2022-09-26T11:11:16.445Z,60.30
2022-09-26T11:14:08.713Z,60.20
2022-09-26T11:16:56.116Z,60.60
2022-09-26T11:19:54.457Z,60.10
2022-09-26T11:22:44.440Z,59.80
2022-09-26T11:25:27.945Z,59.70
2022-09-26T11:28:36.574Z,58.30
2022-09-26T11:31:20.567Z,58.40
2022-09-26T11:33:48.137Z,57.90
2022-09-26T11:36:47.000Z,57.50
2022-09-26T11:39:54.684Z,57.00
2022-09-26T11:43:10.170Z,56.10
2022-09-26T11:46:34.836Z,56.40
2022-09-26T11:49:28.273Z,55.90
2022-09-26T11:52:36.985Z,56.30
2022-09-26T11:55:33.397Z,55.30
2022-09-26T11:58:40.356Z,55.00
2022-09-26T12:01:17.018Z,54.90
2022-09-26T12:04:56.783Z,53.60
2022-09-26T12:07:47.606Z,53.20
2022-09-26T12:10:32.446Z,53.20
2022-09-26T12:13:52.512Z,52.80
2022-09-26T12:16:48.122Z,52.50
2022-09-26T12:19:57.462Z,51.00
2022-09-26T12:22:40.659Z,50.70
2022-09-26T12:25:40.777Z,50.60
2022-09-26T12:28:44.146Z,50.90
2022-09-26T12:31:39.187Z,50.50
2022-09-26T12:34:51.327Z,49.70
2022-09-26T12:37:32.186Z,49.20
2022-09-26T12:40:24.718Z,49.40
2022-09-26T12:43:33.468Z,49.80
2022-09-26T12:46:31.158Z,49.40
2022-09-26T12:49:51.977Z,49.10
2022-09-26T12:52:41.045Z,49.70
2022-09-26T12:55:38.305Z,50.20
2022-09-26T12:58:55.419Z,48.60
2022-09-26T13:01:47.353Z,48.70
2022-09-26T13:04:42.056Z,49.10
2022-09-26T13:07:44.679Z,49.10
2022-09-26T13:10:52.389Z,49.30
2022-09-26T13:13:50.379Z,48.40
2022-09-26T13:16:36.792Z,49.30
2022-09-26T13:19:35.863Z,49.20
2022-09-26T13:22:22.092Z,49.10
2022-09-26T13:25:19.794Z,48.80
2022-09-26T13:28:06.432Z,49.20
2022-09-26T13:30:43.087Z,49.40
2022-09-26T13:33:39.838Z,49.50
2022-09-26T13:36:09.703Z,49.60
2022-09-26T13:39:03.757Z,50.30
2022-09-26T13:42:04.792Z,50.70
2022-09-26T13:45:00.336Z,51.00
2022-09-26T13:48:02.327Z,51.50
2022-09-26T13:50:46.428Z,51.90
2022-09-26T13:53:51.158Z,52.30
2022-09-26T13:56:30.605Z,53.40
2022-09-26T13:59:26.216Z,53.10
2022-09-26T14:02:23.477Z,53.50
2022-09-26T14:05:18.886Z,53.90
2022-09-26T14:08:10.747Z,54.00
2022-09-26T14:11:08.550Z,54.00
2022-09-26T14:13:38.944Z,54.20
2022-09-26T14:16:28.905Z,54.30
2022-09-26T14:19:31.389Z,54.30
2022-09-26T14:22:25.782Z,54.40
2022-09-26T14:24:57.253Z,54.40
2022-09-26T14:27:27.243Z,54.30
2022-09-26T14:30:07.158Z,54.10
2022-09-26T14:32:46.869Z,53.90
2022-09-26T14:35:25.122Z,54.00
2022-09-26T14:38:00.800Z,54.10
2022-09-26T14:40:36.535Z,54.00
2022-09-26T14:43:17.384Z,54.20
2022-09-26T14:45:54.044Z,54.20
2022-09-26T14:48:37.120Z,54.40
2022-09-26T14:51:11.182Z,54.30
2022-09-26T14:53:55.019Z,54.50
2022-09-26T14:56:32.586Z,54.60
2022-09-26T14:59:33.910Z,54.60
2022-09-26T15:02:41.222Z,54.80
2022-09-26T15:05:25.243Z,55.00
2022-09-26T15:07:55.799Z,55.00
2022-09-26T15:10:40.220Z,55.00
2022-09-26T15:13:33.158Z,54.70
2022-09-26T15:16:40.880Z,54.50
2022-09-26T15:19:37.260Z,54.50
2022-09-26T15:22:15.689Z,54.60
2022-09-26T15:24:43.089Z,54.70
2022-09-26T15:27:27.414Z,54.80
2022-09-26T15:30:22.529Z,54.20
2022-09-26T15:32:56.279Z,53.90
2022-09-26T15:35:24.114Z,53.80
2022-09-26T15:38:00.239Z,53.60
2022-09-26T15:40:31.930Z,53.40
2022-09-26T15:43:20.496Z,53.30
2022-09-26T15:45:50.706Z,53.00
2022-09-26T15:48:29.017Z,53.00
2022-09-26T15:51:32.617Z,52.90
2022-09-26T15:54:09.373Z,53.00
2022-09-26T15:56:44.517Z,53.60
2022-09-26T15:59:29.253Z,54.00
2022-09-26T16:01:57.481Z,54.50
2022-09-26T16:04:32.118Z,54.90
2022-09-26T16:07:20.137Z,55.90
2022-09-26T16:09:51.479Z,55.60
2022-09-26T16:12:22.951Z,56.00
2022-09-26T16:15:08.152Z,56.50
2022-09-26T16:17:52.189Z,57.10
2022-09-26T16:20:19.888Z,57.40
2022-09-26T16:22:51.722Z,58.00
2022-09-26T16:25:32.244Z,58.40
2022-09-26T16:28:10.505Z,59.10
2022-09-26T16:31:01.046Z,59.60
2022-09-26T16:33:35.119Z,60.20
2022-09-26T16:36:16.087Z,60.70
2022-09-26T16:38:52.072Z,61.20
2022-09-26T16:42:00.689Z,61.70
2022-09-26T16:44:41.450Z,62.20
2022-09-26T16:47:44.842Z,62.60
2022-09-26T16:50:28.365Z,62.80
2022-09-26T16:52:56.213Z,63.20
2022-09-26T16:55:27.165Z,63.70
2022-09-26T16:58:01.959Z,64.00
2022-09-26T17:00:53.167Z,64.40
2022-09-26T17:03:31.621Z,64.80
2022-09-26T17:06:01.190Z,65.30
2022-09-26T17:08:29.622Z,65.40
2022-09-26T17:11:01.347Z,65.80
2022-09-26T17:13:33.253Z,65.90
2022-09-26T17:16:08.995Z,65.90
2022-09-26T17:18:37.310Z,66.20
2022-09-26T17:21:04.858Z,66.40
2022-09-26T17:23:41.446Z,66.60
2022-09-26T17:26:19.911Z,66.70
2022-09-26T17:28:49.443Z,66.80
2022-09-26T17:31:21.919Z,66.80
2022-09-26T17:33:53.057Z,66.60
2022-09-26T17:36:29.815Z,66.70
2022-09-26T17:39:02.516Z,66.80
2022-09-26T17:41:32.674Z,66.90
2022-09-26T17:44:05.500Z,66.90
2022-09-26T17:46:33.375Z,67.00
2022-09-26T17:49:05.228Z,67.20
2022-09-26T17:51:33.567Z,67.40
2022-09-26T17:54:00.948Z,67.50
2022-09-26T17:56:31.239Z,67.70
2022-09-26T17:58:59.283Z,67.90
2022-09-26T18:01:34.996Z,68.20
2022-09-26T18:04:07.585Z,68.40
2022-09-26T18:06:36.936Z,68.70
2022-09-26T18:09:09.979Z,68.70
2022-09-26T18:11:38.683Z,68.70
2022-09-26T18:14:06.896Z,68.70
2022-09-26T18:16:36.371Z,69.00
2022-09-26T18:19:07.561Z,69.20
2022-09-26T18:21:35.844Z,69.50
2022-09-26T18:24:06.838Z,69.60
2022-09-26T18:26:49.994Z,69.70
2022-09-26T18:29:30.955Z,69.80
2022-09-26T18:32:03.526Z,70.10
2022-09-26T18:34:31.583Z,70.30
2022-09-26T18:37:00.590Z,70.50
2022-09-26T18:39:30.777Z,70.70
2022-09-26T18:42:09.350Z,70.90
2022-09-26T18:44:37.174Z,71.00
2022-09-26T18:47:32.117Z,71.30
2022-09-26T18:49:59.616Z,71.60
2022-09-26T18:52:27.082Z,71.90
2022-09-26T18:55:15.810Z,72.20
2022-09-26T18:58:04.860Z,72.40
2022-09-26T19:00:32.180Z,72.60
2022-09-26T19:03:00.209Z,72.90
2022-09-26T19:05:27.651Z,74.10
2022-09-26T19:07:55.167Z,73.60
2022-09-26T19:10:23.061Z,74.00
2022-09-26T19:12:50.518Z,74.40
2022-09-26T19:15:20.842Z,74.70
2022-09-26T19:17:50.827Z,74.90
2022-09-26T19:20:19.623Z,75.20
2022-09-26T19:22:49.567Z,75.50
2022-09-26T19:25:17.486Z,75.90
2022-09-26T19:27:52.143Z,75.80
2022-09-26T19:30:21.474Z,75.70
2022-09-26T19:32:53.193Z,76.10
2022-09-26T19:35:25.861Z,75.60
2022-09-26T19:37:54.157Z,75.40
2022-09-26T19:40:22.032Z,75.30
2022-09-26T19:42:49.610Z,75.30
2022-09-26T19:45:18.091Z,75.10
2022-09-26T19:47:48.115Z,75.20
2022-09-26T19:50:23.489Z,75.10
2022-09-26T19:52:58.730Z,75.20
2022-09-26T19:55:29.389Z,75.50
2022-09-26T19:58:03.978Z,75.30
2022-09-26T20:00:37.015Z,75.20
2022-09-26T20:03:04.371Z,76.00
2022-09-26T20:05:31.564Z,75.60
2022-09-26T20:08:00.005Z,75.50
2022-09-26T20:10:27.250Z,75.60
2022-09-26T20:12:54.432Z,75.30
2022-09-26T20:15:21.911Z,75.20
2022-09-26T20:17:50.921Z,75.10
2022-09-26T20:20:21.489Z,74.90
2022-09-26T20:22:53.446Z,75.00
2022-09-26T20:25:27.389Z,75.30
2022-09-26T20:27:56.224Z,75.00
2022-09-26T20:30:51.149Z,75.10
2022-09-26T20:33:24.826Z,75.10
2022-09-26T20:36:05.226Z,75.10
2022-09-26T20:38:47.982Z,75.00
2022-09-26T20:41:43.743Z,75.00
2022-09-26T20:44:30.273Z,75.00
2022-09-26T20:47:07.231Z,75.00
2022-09-26T20:49:56.353Z,75.20
2022-09-26T20:52:26.438Z,75.10
2022-09-26T20:54:55.271Z,75.10
2022-09-26T20:57:25.692Z,75.10
2022-09-26T20:59:52.995Z,75.10
2022-09-26T21:02:30.988Z,75.20
2022-09-26T21:05:01.491Z,75.10
2022-09-26T21:07:31.335Z,75.30
2022-09-26T21:09:59.024Z,75.20
2022-09-26T21:12:26.154Z,75.40
2022-09-26T21:14:53.241Z,75.30
2022-09-26T21:17:29.908Z,75.30
2022-09-26T21:19:57.054Z,75.50
2022-09-26T21:22:26.874Z,75.20
2022-09-26T21:24:54.332Z,75.40
2022-09-26T21:27:21.565Z,75.30
2022-09-26T21:30:07.899Z,75.20
2022-09-26T21:32:35.113Z,75.10
2022-09-26T21:35:03.914Z,75.20
2022-09-26T21:37:31.537Z,75.50
2022-09-26T21:39:58.715Z,75.50
2022-09-26T21:42:26.519Z,75.80
2022-09-26T21:45:05.006Z,75.50
2022-09-26T21:47:36.635Z,75.60
2022-09-26T21:50:06.258Z,76.10
2022-09-26T21:52:40.751Z,75.80
2022-09-26T21:55:33.760Z,75.80
2022-09-26T21:58:04.337Z,75.80
2022-09-26T22:00:31.975Z,75.70
2022-09-26T22:03:01.147Z,75.80
2022-09-26T22:05:29.046Z,75.60
2022-09-26T22:07:57.059Z,75.80
2022-09-26T22:10:24.290Z,75.80
2022-09-26T22:12:52.445Z,75.70
2022-09-26T22:15:20.111Z,75.80
2022-09-26T22:17:50.408Z,75.80
2022-09-26T22:20:17.924Z,76.10
2022-09-26T22:22:45.047Z,76.10
2022-09-26T22:25:12.574Z,76.00
2022-09-26T22:27:40.046Z,76.10
2022-09-26T22:30:09.060Z,76.30
2022-09-26T22:32:36.340Z,76.00
2022-09-26T22:35:04.456Z,77.00
2022-09-26T22:37:31.694Z,78.00
2022-09-26T22:39:59.005Z,78.50
2022-09-26T22:42:26.499Z,79.30
2022-09-26T22:44:53.813Z,79.80
2022-09-26T22:47:21.134Z,80.10
2022-09-26T22:49:49.368Z,80.40
2022-09-26T22:52:16.755Z,80.40
2022-09-26T22:54:44.009Z,80.70
2022-09-26T22:57:11.565Z,80.90
2022-09-26T22:59:39.321Z,81.30
2022-09-26T23:02:06.779Z,81.40
2022-09-26T23:04:47.061Z,81.70
2022-09-26T23:07:18.037Z,81.70
2022-09-26T23:09:46.092Z,81.70
2022-09-26T23:12:14.250Z,81.80
2022-09-26T23:14:41.774Z,81.80
2022-09-26T23:17:09.277Z,81.70
2022-09-26T23:19:38.285Z,81.90
2022-09-26T23:22:05.833Z,82.10
2022-09-26T23:24:33.127Z,82.30
2022-09-26T23:27:00.673Z,82.40
2022-09-26T23:29:28.080Z,82.60
2022-09-26T23:31:55.505Z,82.70
2022-09-26T23:34:22.842Z,82.90
2022-09-26T23:36:50.491Z,82.80
2022-09-26T23:39:18.743Z,82.70
2022-09-26T23:41:46.060Z,82.60
2022-09-26T23:44:13.605Z,82.20
2022-09-26T23:46:40.881Z,82.00
2022-09-26T23:49:08.112Z,82.00
2022-09-26T23:51:35.312Z,81.80
2022-09-26T23:54:02.862Z,81.80
2022-09-26T23:56:29.961Z,82.10
2022-09-26T23:58:57.635Z,82.40
